Airdrie, Canada
Current Conditions -  °F | °C
As of 2:00 AM on Saturday 20 Dec 2014 (Local Time) from CYYC Reporting Station
Few Clouds Few Clouds  
Wind Chill: 32°   Ceiling: Unl
Heat Index: 32°   Visibility: 15mi
Dew Point: 19°   Wind: 3mph
Humidity: 60%   Direction: 190°S
Pressure: 29.7"   Gusts: NA
Location:  51.29°N, 114.01°W
Report Text: CYYC 200900Z 19003KT 160V230 15SM FEW200 M00/M07 A2970 RMK CI2 SLP099
Loading
Personal Weather Stations






























Interactive Weather Map New forecast layout! Learn more

10-Day Weather Forecast

Advertisements
Track Severe Weather on mobile